Time;durP1;ratioP1;P1;durP2;ratioP2;P2;SDS_P1;SDS_P2;PMS_P1;PMS_P2;Temp;Humidity;BMP_temperature;BMP_pressure;BME280_temperature;BME280_humidity;BME280_pressure;Samples;Min_cycle;Max_cycle;Signal;HPM_P1;HPM_P2
2022/11/02 00:02:13;;;;;;;;;;;12.20;99.90;;;;;;5052541;28;19923;-68
2022/11/02 00:04:39;;;;;;;;;;;12.20;99.90;;;;;;5052536;28;20485;-69
2022/11/02 00:07:04;;;;;;;;;;;12.20;99.90;;;;;;5049479;28;19929;-70
2022/11/02 00:09:30;;;;;;;;;;;12.10;99.90;;;;;;5048120;28;20397;-69
2022/11/02 00:11:55;;;;;;;;;;;12.10;99.90;;;;;;5051035;28;19924;-69
2022/11/02 00:14:21;;;;;;;;;;;12.00;99.90;;;;;;5050150;28;20143;-68
2022/11/02 00:16:46;;;;;;;;;;;12.10;99.90;;;;;;5047081;28;19950;-70
2022/11/02 00:19:12;;;;;;;;;;;12.10;99.90;;;;;;5050774;28;19932;-70
2022/11/02 00:21:37;;;;;;;;;;;12.10;99.90;;;;;;5051628;28;19929;-68
2022/11/02 00:24:04;;;;;;;;;;;12.10;99.90;;;;;;5048513;28;19932;-70
2022/11/02 00:26:31;;;;;;;;;;;12.10;99.90;;;;;;5051695;28;19994;-69
2022/11/02 00:28:57;;;;;;;;;;;12.10;99.90;;;;;;5046405;28;19929;-69
2022/11/02 00:31:22;;;;;;;;;;;12.10;99.90;;;;;;5042831;28;19935;-69
2022/11/02 00:33:47;;;;;;;;;;;12.10;99.90;;;;;;5081808;28;19929;-71
2022/11/02 00:36:13;;;;;;;;;;;12.10;99.90;;;;;;5045149;28;19926;-71
2022/11/02 00:38:39;;;;;;;;;;;12.20;99.90;;;;;;5050225;28;19924;-73
2022/11/02 00:41:05;;;;;;;;;;;12.10;99.90;;;;;;5054559;28;19929;-69
2022/11/02 00:43:30;;;;;;;;;;;12.10;99.90;;;;;;5046669;28;19931;-70
2022/11/02 00:45:56;;;;;;;;;;;12.10;99.90;;;;;;5064937;28;21256;-71
2022/11/02 00:48:21;;;;;;;;;;;12.10;99.90;;;;;;5050983;28;19965;-70
2022/11/02 00:50:47;;;;;;;;;;;12.20;99.90;;;;;;5047624;28;20364;-71
2022/11/02 00:53:12;;;;;;;;;;;12.10;99.90;;;;;;5048903;28;19925;-71
2022/11/02 00:55:38;;;;;;;;;;;12.10;99.90;;;;;;5046472;28;20792;-70
2022/11/02 00:58:03;;;;;;;;;;;12.10;99.90;;;;;;5046299;28;19931;-71
2022/11/02 01:00:29;;;;;;;;;;;12.00;99.90;;;;;;5046629;28;20495;-70
2022/11/02 01:02:57;;;;;;;;;;;12.00;99.90;;;;;;5045174;28;19928;-73
2022/11/02 01:05:23;;;;;;;;;;;12.00;99.90;;;;;;5046546;28;19930;-71
2022/11/02 01:07:48;;;;;;;;;;;11.90;99.90;;;;;;5049906;28;19936;-74
2022/11/02 01:10:14;;;;;;;;;;;11.90;99.90;;;;;;5041746;28;20197;-74
2022/11/02 01:12:39;;;;;;;;;;;11.80;99.90;;;;;;5046405;28;20270;-74
2022/11/02 01:15:06;;;;;;;;;;;11.90;99.90;;;;;;5048564;28;19939;-73
2022/11/02 01:17:32;;;;;;;;;;;11.80;99.90;;;;;;5050257;28;19925;-74
2022/11/02 01:19:58;;;;;;;;;;;11.70;99.90;;;;;;5078289;28;20680;-72
2022/11/02 01:22:24;;;;;;;;;;;11.80;99.90;;;;;;5052037;28;19929;-74
2022/11/02 01:24:49;;;;;;;;;;;11.80;99.90;;;;;;5054547;28;20457;-71
2022/11/02 01:27:15;;;;;;;;;;;11.80;99.90;;;;;;5081576;27;19940;-74
2022/11/02 01:29:40;;;;;;;;;;;11.80;99.90;;;;;;5035272;28;19928;-73
2022/11/02 01:32:06;;;;;;;;;;;11.80;99.90;;;;;;5037180;28;19932;-73
2022/11/02 01:34:31;;;;;;;;;;;11.80;99.90;;;;;;5036100;28;19924;-75
2022/11/02 01:36:56;;;;;;;;;;;11.90;99.90;;;;;;5057355;28;20011;-73
2022/11/02 01:39:22;;;;;;;;;;;11.80;99.90;;;;;;5052896;28;19936;-71
2022/11/02 01:41:51;;;;;;;;;;;11.80;99.90;;;;;;5054982;28;19991;-71
2022/11/02 01:44:31;;;;;;;;;;;11.80;99.90;;;;;;5053073;28;20015;-72
2022/11/02 01:47:16;;;;;;;;;;;11.70;99.90;;;;;;5053282;28;19931;-74
2022/11/02 01:49:42;;;;;;;;;;;11.90;99.90;;;;;;5053448;28;20022;-75
2022/11/02 01:52:10;;;;;;;;;;;11.80;99.90;;;;;;5053769;28;19927;-76
2022/11/02 01:54:41;;;;;;;;;;;11.90;99.90;;;;;;5057563;28;19928;-71
2022/11/02 01:57:11;;;;;;;;;;;11.90;99.90;;;;;;5056336;28;20375;-71
2022/11/02 01:59:47;;;;;;;;;;;11.90;99.90;;;;;;5056810;28;19929;-67
2022/11/02 02:02:15;;;;;;;;;;;12.00;99.90;;;;;;5054131;28;19924;-70
2022/11/02 02:04:41;;;;;;;;;;;11.90;99.90;;;;;;5054816;28;19929;-67
2022/11/02 02:07:06;;;;;;;;;;;11.90;99.90;;;;;;5055368;28;19928;-69
2022/11/02 02:09:33;;;;;;;;;;;12.00;99.90;;;;;;5054762;28;20360;-69
2022/11/02 02:11:58;;;;;;;;;;;12.00;99.90;;;;;;5051428;28;19925;-68
2022/11/02 02:14:24;;;;;;;;;;;12.10;99.90;;;;;;5051571;28;19932;-72
2022/11/02 02:17:08;;;;;;;;;;;11.90;99.90;;;;;;5047182;28;19966;-71
2022/11/02 02:19:47;;;;;;;;;;;11.90;99.90;;;;;;5043480;28;20070;-68
2022/11/02 02:22:25;;;;;;;;;;;11.70;99.90;;;;;;5064867;28;19926;-71
2022/11/02 02:25:09;;;;;;;;;;;11.50;99.90;;;;;;5049868;28;19929;-75
2022/11/02 02:27:43;;;;;;;;;;;11.40;99.90;;;;;;5072149;28;19929;-71
2022/11/02 02:30:09;;;;;;;;;;;11.20;99.90;;;;;;5053149;28;19929;-70
2022/11/02 02:32:54;;;;;;;;;;;11.20;99.90;;;;;;5085130;28;20275;-74
2022/11/02 02:35:19;;;;;;;;;;;11.20;99.90;;;;;;5053966;28;19928;-73
2022/11/02 02:37:56;;;;;;;;;;;11.20;99.90;;;;;;5054489;28;19943;-71
2022/11/02 02:40:26;;;;;;;;;;;11.20;99.90;;;;;;5082142;27;19975;-73
2022/11/02 02:42:55;;;;;;;;;;;11.20;99.90;;;;;;5052516;28;20280;-70
2022/11/02 02:45:33;;;;;;;;;;;11.30;99.90;;;;;;5054642;28;19974;-71
2022/11/02 02:48:05;;;;;;;;;;;11.40;99.90;;;;;;5084168;27;20119;-74
2022/11/02 02:50:34;;;;;;;;;;;11.40;99.90;;;;;;5054312;28;20317;-72
2022/11/02 02:53:01;;;;;;;;;;;11.30;99.90;;;;;;5049373;28;20014;-71
2022/11/02 02:55:30;;;;;;;;;;;11.30;99.90;;;;;;5052673;28;20401;-74
2022/11/02 02:57:57;;;;;;;;;;;11.30;99.90;;;;;;5046445;28;19929;-72
2022/11/02 03:00:22;;;;;;;;;;;11.20;99.90;;;;;;5049029;28;19925;-71
2022/11/02 03:03:02;;;;;;;;;;;11.20;99.90;;;;;;5083900;28;21326;-68
2022/11/02 03:05:27;;;;;;;;;;;11.10;99.90;;;;;;5048857;28;19943;-73
2022/11/02 03:07:54;;;;;;;;;;;11.00;99.90;;;;;;5069643;28;19932;-70
2022/11/02 03:10:20;;;;;;;;;;;11.00;99.90;;;;;;5050111;28;20484;-72
2022/11/02 03:12:46;;;;;;;;;;;11.00;99.90;;;;;;5083399;27;19926;-68
2022/11/02 03:15:14;;;;;;;;;;;10.90;99.90;;;;;;5048411;28;19920;-74
2022/11/02 03:17:43;;;;;;;;;;;10.90;99.90;;;;;;5084170;27;19963;-70
2022/11/02 03:20:20;;;;;;;;;;;10.80;99.90;;;;;;5049839;28;19939;-70
2022/11/02 03:22:45;;;;;;;;;;;10.70;99.90;;;;;;5052086;28;21075;-69
2022/11/02 03:25:11;;;;;;;;;;;10.70;99.90;;;;;;5047782;28;19999;-71
2022/11/02 03:27:39;;;;;;;;;;;10.60;99.90;;;;;;5078529;28;19925;-72
2022/11/02 03:30:13;;;;;;;;;;;10.70;99.90;;;;;;5055607;28;20573;-73
2022/11/02 03:32:55;;;;;;;;;;;10.70;99.90;;;;;;5048883;28;20133;-67
2022/11/02 03:35:31;;;;;;;;;;;10.70;99.90;;;;;;5054554;28;19979;-70
2022/11/02 03:38:05;;;;;;;;;;;10.70;99.90;;;;;;5050507;28;19978;-71
2022/11/02 03:40:32;;;;;;;;;;;10.60;99.90;;;;;;5065388;28;19936;-68
2022/11/02 03:42:58;;;;;;;;;;;10.70;99.90;;;;;;5049473;28;19924;-68
2022/11/02 03:45:27;;;;;;;;;;;10.70;99.90;;;;;;5048290;28;20383;-69
2022/11/02 03:47:58;;;;;;;;;;;10.70;99.90;;;;;;5082600;27;19935;-69
2022/11/02 03:50:26;;;;;;;;;;;10.70;99.90;;;;;;5049784;28;19981;-69
2022/11/02 03:53:03;;;;;;;;;;;10.80;99.90;;;;;;5033032;28;19924;-70
2022/11/02 03:55:32;;;;;;;;;;;10.80;99.90;;;;;;5048139;28;19921;-70
2022/11/02 03:57:58;;;;;;;;;;;10.80;99.90;;;;;;5079750;27;20394;-70
2022/11/02 04:00:25;;;;;;;;;;;10.80;99.90;;;;;;5051229;28;20325;-69
2022/11/02 04:02:52;;;;;;;;;;;10.80;99.90;;;;;;5051886;28;19928;-68
2022/11/02 04:05:18;;;;;;;;;;;10.80;99.90;;;;;;5081782;27;19924;-70
2022/11/02 04:10:30;;;;;;;;;;;10.70;99.90;;;;;;5051507;28;20213;-71
2022/11/02 04:15:40;;;;;;;;;;;10.70;99.90;;;;;;5083264;28;19951;-71
2022/11/02 04:20:50;;;;;;;;;;;10.80;99.90;;;;;;5062746;28;19979;-69
2022/11/02 04:26:00;;;;;;;;;;;10.80;99.90;;;;;;5051463;28;19977;-69
2022/11/02 04:28:25;;;;;;;;;;;10.80;99.90;;;;;;5048676;28;19929;-69
2022/11/02 04:30:51;;;;;;;;;;;10.80;99.90;;;;;;5034526;28;19932;-69
2022/11/02 04:33:31;;;;;;;;;;;10.80;99.90;;;;;;5049605;28;19963;-69
2022/11/02 04:36:01;;;;;;;;;;;10.80;99.90;;;;;;5050468;28;19928;-71
2022/11/02 04:38:39;;;;;;;;;;;10.80;99.90;;;;;;5081856;28;20393;-69
2022/11/02 04:43:49;;;;;;;;;;;10.90;99.90;;;;;;5050157;28;19973;-70
2022/11/02 04:46:15;;;;;;;;;;;10.90;99.90;;;;;;5043970;28;19932;-70
2022/11/02 04:48:40;;;;;;;;;;;10.90;99.90;;;;;;5083953;28;19920;-71
2022/11/02 04:51:06;;;;;;;;;;;10.90;99.90;;;;;;5049741;28;20375;-69
2022/11/02 04:53:31;;;;;;;;;;;11.00;99.90;;;;;;5054571;28;19920;-71
2022/11/02 04:55:57;;;;;;;;;;;11.00;99.90;;;;;;5050500;28;19974;-70
2022/11/02 04:58:22;;;;;;;;;;;11.00;99.90;;;;;;5055506;28;20052;-69
2022/11/02 05:00:48;;;;;;;;;;;11.00;99.90;;;;;;5053061;28;19982;-70
2022/11/02 05:03:13;;;;;;;;;;;11.00;99.90;;;;;;5050872;28;20688;-71
2022/11/02 05:05:39;;;;;;;;;;;11.00;99.90;;;;;;5050834;28;19935;-72
2022/11/02 05:08:04;;;;;;;;;;;11.10;99.90;;;;;;5082853;27;19927;-70
2022/11/02 05:10:30;;;;;;;;;;;11.10;99.90;;;;;;5054150;28;19928;-68
2022/11/02 05:12:56;;;;;;;;;;;11.20;99.90;;;;;;5050755;28;20027;-71
2022/11/02 05:15:21;;;;;;;;;;;11.20;99.90;;;;;;5053160;28;19967;-69
2022/11/02 05:17:47;;;;;;;;;;;11.20;99.90;;;;;;5049350;28;20440;-69
2022/11/02 05:20:12;;;;;;;;;;;11.20;99.90;;;;;;5049772;28;20407;-73
2022/11/02 05:22:41;;;;;;;;;;;11.30;99.90;;;;;;5085558;28;19946;-73
2022/11/02 05:25:07;;;;;;;;;;;11.20;99.90;;;;;;5084056;28;19925;-72
2022/11/02 05:27:33;;;;;;;;;;;11.10;99.90;;;;;;5080832;27;21085;-70
2022/11/02 05:29:58;;;;;;;;;;;11.10;99.90;;;;;;5049202;28;20062;-74
2022/11/02 05:32:25;;;;;;;;;;;10.90;99.90;;;;;;5081313;27;20039;-77
2022/11/02 05:34:50;;;;;;;;;;;10.90;99.90;;;;;;5051916;28;19928;-74
2022/11/02 05:37:16;;;;;;;;;;;10.80;99.90;;;;;;5087938;27;19929;-72
2022/11/02 05:39:41;;;;;;;;;;;10.80;99.90;;;;;;5088737;27;19942;-70
2022/11/02 05:42:07;;;;;;;;;;;10.80;99.90;;;;;;5051379;28;20509;-67
2022/11/02 05:44:32;;;;;;;;;;;10.80;99.90;;;;;;5051756;28;20418;-72
2022/11/02 05:46:58;;;;;;;;;;;10.80;99.90;;;;;;5051822;28;19955;-72
2022/11/02 05:49:23;;;;;;;;;;;10.80;99.90;;;;;;5051278;28;20374;-73
2022/11/02 05:51:49;;;;;;;;;;;10.80;99.90;;;;;;5051729;28;21477;-70
2022/11/02 05:54:14;;;;;;;;;;;10.80;99.90;;;;;;5053244;28;20904;-74
2022/11/02 05:56:40;;;;;;;;;;;10.80;99.90;;;;;;5046717;28;19982;-73
2022/11/02 05:59:06;;;;;;;;;;;10.80;99.90;;;;;;5051673;28;19929;-73
2022/11/02 06:01:31;;;;;;;;;;;10.70;99.90;;;;;;5052417;28;21358;-72
2022/11/02 06:03:56;;;;;;;;;;;10.70;99.90;;;;;;5048310;28;19955;-75
2022/11/02 06:06:22;;;;;;;;;;;10.70;99.90;;;;;;5046852;28;19971;-71
2022/11/02 06:08:47;;;;;;;;;;;10.60;99.90;;;;;;5053233;28;19928;-71
2022/11/02 06:11:14;;;;;;;;;;;10.70;99.90;;;;;;5048967;28;19928;-72
2022/11/02 06:13:40;;;;;;;;;;;10.70;99.90;;;;;;5048287;28;20367;-73
2022/11/02 06:16:08;;;;;;;;;;;10.70;99.90;;;;;;5056691;28;19967;-70
2022/11/02 06:18:34;;;;;;;;;;;10.60;99.90;;;;;;5048184;28;19924;-70
2022/11/02 06:20:59;;;;;;;;;;;10.60;99.90;;;;;;5051376;28;19928;-71
2022/11/02 06:23:25;;;;;;;;;;;10.60;99.90;;;;;;5048036;28;19929;-73
2022/11/02 06:25:54;;;;;;;;;;;10.70;99.90;;;;;;5047917;28;20003;-73
2022/11/02 06:28:20;;;;;;;;;;;10.70;99.90;;;;;;5051606;28;19943;-73
2022/11/02 06:30:46;;;;;;;;;;;10.60;99.90;;;;;;5067808;28;19928;-70
2022/11/02 06:33:11;;;;;;;;;;;10.50;99.90;;;;;;5064927;28;19928;-73
2022/11/02 06:35:37;;;;;;;;;;;10.60;99.90;;;;;;5066096;28;20026;-69
2022/11/02 06:38:02;;;;;;;;;;;10.50;99.90;;;;;;5044989;28;19920;-70
2022/11/02 06:40:28;;;;;;;;;;;10.50;99.90;;;;;;5034457;28;19939;-72
2022/11/02 06:42:57;;;;;;;;;;;10.50;99.90;;;;;;5046894;28;19936;-73
2022/11/02 06:45:23;;;;;;;;;;;10.50;99.90;;;;;;5049440;28;19932;-69
2022/11/02 06:47:48;;;;;;;;;;;10.50;99.90;;;;;;5048574;28;19928;-69
2022/11/02 06:50:14;;;;;;;;;;;10.50;99.90;;;;;;5071341;28;19929;-70
2022/11/02 06:52:44;;;;;;;;;;;10.60;99.90;;;;;;5047505;28;19924;-73
2022/11/02 06:55:09;;;;;;;;;;;10.60;99.90;;;;;;5048529;28;19929;-69
2022/11/02 06:57:36;;;;;;;;;;;10.70;99.90;;;;;;5037236;28;19930;-71
2022/11/02 07:00:03;;;;;;;;;;;10.70;99.90;;;;;;5052989;28;19924;-69
2022/11/02 07:02:29;;;;;;;;;;;10.70;99.90;;;;;;5051697;28;19928;-72
2022/11/02 07:04:55;;;;;;;;;;;10.70;99.90;;;;;;5054274;28;19924;-73
2022/11/02 07:07:21;;;;;;;;;;;10.80;99.90;;;;;;5052227;28;19978;-73
2022/11/02 07:09:46;;;;;;;;;;;10.90;99.90;;;;;;5051055;28;19924;-72
2022/11/02 07:12:12;;;;;;;;;;;10.90;99.90;;;;;;5052648;28;19935;-68
2022/11/02 07:14:37;;;;;;;;;;;11.00;99.90;;;;;;5052236;28;19982;-71
2022/11/02 07:17:03;;;;;;;;;;;11.10;99.90;;;;;;5049135;28;19970;-73
2022/11/02 07:19:28;;;;;;;;;;;11.00;99.90;;;;;;5056170;28;19929;-67
2022/11/02 07:21:54;;;;;;;;;;;11.10;99.90;;;;;;5054588;28;19932;-74
2022/11/02 07:24:19;;;;;;;;;;;11.00;99.90;;;;;;5054524;28;20310;-71
2022/11/02 07:26:49;;;;;;;;;;;11.00;99.90;;;;;;5053704;28;20566;-69
2022/11/02 07:29:15;;;;;;;;;;;11.00;99.90;;;;;;5054655;28;21081;-72
2022/11/02 07:31:40;;;;;;;;;;;11.00;99.90;;;;;;5053219;28;19921;-72
2022/11/02 07:34:06;;;;;;;;;;;11.20;99.90;;;;;;5045896;28;19947;-69
2022/11/02 07:36:31;;;;;;;;;;;11.10;99.90;;;;;;5052029;28;20017;-67
2022/11/02 07:38:57;;;;;;;;;;;11.10;99.90;;;;;;5056700;28;19935;-68
2022/11/02 07:41:22;;;;;;;;;;;11.20;99.90;;;;;;5052463;28;20732;-65
2022/11/02 07:43:48;;;;;;;;;;;11.20;99.90;;;;;;5053936;28;19920;-69
2022/11/02 07:46:13;;;;;;;;;;;11.20;99.90;;;;;;5053390;28;19925;-69
2022/11/02 07:48:39;;;;;;;;;;;11.10;99.90;;;;;;5056420;28;20051;-66
2022/11/02 07:51:06;;;;;;;;;;;11.20;99.90;;;;;;5051256;28;19936;-68
2022/11/02 07:53:32;;;;;;;;;;;11.20;99.90;;;;;;5053531;28;20011;-67
2022/11/02 07:55:58;;;;;;;;;;;11.30;99.90;;;;;;5088597;28;19939;-68
2022/11/02 07:58:24;;;;;;;;;;;11.40;99.90;;;;;;5052673;28;19935;-67
2022/11/02 08:00:50;;;;;;;;;;;11.30;99.90;;;;;;5057045;28;20247;-71
2022/11/02 08:03:15;;;;;;;;;;;11.30;99.90;;;;;;5038003;28;19928;-71
2022/11/02 08:05:42;;;;;;;;;;;11.30;99.90;;;;;;5055822;28;19928;-69
2022/11/02 08:08:11;;;;;;;;;;;11.30;99.90;;;;;;5056499;28;19938;-74
2022/11/02 08:10:37;;;;;;;;;;;11.40;99.90;;;;;;5053148;28;19920;-67
2022/11/02 08:13:03;;;;;;;;;;;11.40;99.90;;;;;;5087439;28;20137;-73
2022/11/02 08:15:29;;;;;;;;;;;11.40;99.90;;;;;;5085412;28;19931;-73
2022/11/02 08:17:58;;;;;;;;;;;11.50;99.90;;;;;;5052550;28;20375;-70
2022/11/02 08:20:24;;;;;;;;;;;11.40;99.90;;;;;;5037355;28;19932;-67
2022/11/02 08:22:49;;;;;;;;;;;11.30;99.90;;;;;;5050158;28;19932;-69
2022/11/02 08:25:15;;;;;;;;;;;11.30;99.90;;;;;;5051826;28;20371;-70
2022/11/02 08:27:40;;;;;;;;;;;11.30;99.90;;;;;;5052403;28;19927;-68
2022/11/02 08:30:06;;;;;;;;;;;11.30;99.90;;;;;;5052281;28;20048;-73
2022/11/02 08:32:32;;;;;;;;;;;11.30;99.90;;;;;;5052327;28;19989;-70
2022/11/02 08:34:57;;;;;;;;;;;11.40;99.90;;;;;;5052861;28;21393;-69
2022/11/02 08:37:23;;;;;;;;;;;11.50;99.90;;;;;;5050959;28;19932;-67
2022/11/02 08:39:48;;;;;;;;;;;11.60;99.90;;;;;;5054699;28;19925;-68
2022/11/02 08:42:14;;;;;;;;;;;11.60;99.90;;;;;;5051504;28;19932;-68
2022/11/02 08:44:39;;;;;;;;;;;11.70;99.90;;;;;;5055783;28;20286;-68
2022/11/02 08:47:05;;;;;;;;;;;11.70;99.90;;;;;;5052276;28;19929;-66
2022/11/02 08:49:30;;;;;;;;;;;11.80;99.90;;;;;;5049721;28;19967;-67
2022/11/02 08:51:56;;;;;;;;;;;11.80;99.90;;;;;;5051296;28;20067;-67
2022/11/02 08:54:22;;;;;;;;;;;11.80;99.90;;;;;;5051831;28;20377;-67
2022/11/02 08:56:47;;;;;;;;;;;11.80;99.90;;;;;;5051376;28;20438;-72
2022/11/02 08:59:16;;;;;;;;;;;11.80;99.90;;;;;;5047716;28;19921;-66
2022/11/02 09:01:41;;;;;;;;;;;11.80;99.90;;;;;;5086217;28;19936;-68
2022/11/02 09:04:07;;;;;;;;;;;11.90;99.90;;;;;;5050658;28;19943;-71
2022/11/02 09:06:32;;;;;;;;;;;12.00;99.90;;;;;;5052631;28;19921;-72
2022/11/02 09:08:57;;;;;;;;;;;12.00;99.90;;;;;;5052098;28;19976;-66
2022/11/02 09:11:23;;;;;;;;;;;12.10;99.90;;;;;;5052371;28;19952;-69
2022/11/02 09:13:48;;;;;;;;;;;12.00;99.90;;;;;;5087035;28;20010;-69
2022/11/02 09:16:16;;;;;;;;;;;12.10;99.90;;;;;;5053104;28;19924;-71
2022/11/02 09:18:41;;;;;;;;;;;12.20;99.90;;;;;;5082836;28;19971;-68
2022/11/02 09:21:07;;;;;;;;;;;12.30;99.90;;;;;;5054084;28;20052;-69
2022/11/02 09:23:33;;;;;;;;;;;12.30;99.90;;;;;;5051921;28;20354;-68
2022/11/02 09:25:59;;;;;;;;;;;12.40;99.90;;;;;;5052299;28;19928;-69
2022/11/02 09:28:24;;;;;;;;;;;12.50;99.90;;;;;;5053652;28;20505;-68
2022/11/02 09:30:50;;;;;;;;;;;12.50;99.90;;;;;;5085489;28;20390;-69
2022/11/02 09:33:15;;;;;;;;;;;12.50;99.90;;;;;;5051206;28;20374;-72
2022/11/02 09:35:43;;;;;;;;;;;12.50;99.90;;;;;;5055099;28;20663;-68
2022/11/02 09:38:09;;;;;;;;;;;12.60;99.90;;;;;;5052752;28;19928;-68
2022/11/02 09:40:36;;;;;;;;;;;12.60;99.90;;;;;;5050526;28;19998;-68
2022/11/02 09:43:19;;;;;;;;;;;12.60;99.90;;;;;;5057372;28;20429;-69
2022/11/02 09:45:54;;;;;;;;;;;12.60;99.90;;;;;;5090114;28;19931;-68
2022/11/02 09:48:21;;;;;;;;;;;12.60;99.90;;;;;;5052722;28;20390;-66
2022/11/02 09:50:48;;;;;;;;;;;12.70;99.90;;;;;;5054308;28;19932;-71
2022/11/02 09:53:17;;;;;;;;;;;12.70;99.90;;;;;;5056398;28;19929;-66
2022/11/02 09:55:47;;;;;;;;;;;12.70;99.90;;;;;;5087980;28;19932;-67
2022/11/02 09:58:15;;;;;;;;;;;12.60;99.90;;;;;;5050944;28;19925;-67
2022/11/02 10:00:42;;;;;;;;;;;12.40;99.90;;;;;;5058248;28;20276;-67
2022/11/02 10:03:27;;;;;;;;;;;12.30;99.90;;;;;;5055991;28;19932;-67
2022/11/02 10:05:57;;;;;;;;;;;12.30;99.90;;;;;;5041479;28;19970;-66
2022/11/02 10:08:48;;;;;;;;;;;12.40;99.90;;;;;;5057471;28;20443;-64
2022/11/02 10:11:13;;;;;;;;;;;12.60;99.90;;;;;;5053851;28;19989;-67
2022/11/02 10:13:54;;;;;;;;;;;12.80;99.90;;;;;;5056135;28;20375;-66
2022/11/02 10:16:22;;;;;;;;;;;12.90;99.90;;;;;;5057406;28;19924;-68
2022/11/02 10:18:49;;;;;;;;;;;13.00;99.90;;;;;;5057891;28;20409;-67
2022/11/02 10:21:44;;;;;;;;;;;12.80;99.90;;;;;;5060292;28;19936;-66
2022/11/02 10:24:26;;;;;;;;;;;12.80;99.90;;;;;;5047337;28;19982;-72
2022/11/02 10:26:58;;;;;;;;;;;12.70;99.90;;;;;;5057816;28;19978;-65
2022/11/02 10:29:42;;;;;;;;;;;12.70;99.90;;;;;;5055708;28;19932;-69
2022/11/02 10:32:10;;;;;;;;;;;12.60;99.90;;;;;;5054195;28;20289;-66
2022/11/02 10:34:35;;;;;;;;;;;12.50;99.90;;;;;;5055034;28;19987;-67
2022/11/02 10:37:19;;;;;;;;;;;12.50;99.90;;;;;;5088970;28;20021;-67
2022/11/02 10:39:57;;;;;;;;;;;12.60;99.90;;;;;;5055538;28;19921;-69
2022/11/02 10:42:32;;;;;;;;;;;12.60;99.90;;;;;;5056251;28;19929;-67
2022/11/02 10:45:03;;;;;;;;;;;12.60;99.90;;;;;;5058541;28;19956;-70
2022/11/02 10:47:33;;;;;;;;;;;12.60;99.90;;;;;;5058954;28;20379;-68
2022/11/02 10:50:07;;;;;;;;;;;12.60;99.90;;;;;;5053322;28;20045;-68
2022/11/02 10:52:35;;;;;;;;;;;12.60;99.90;;;;;;5055222;28;20023;-68
2022/11/02 10:55:01;;;;;;;;;;;12.50;99.90;;;;;;5054314;28;20286;-68
2022/11/02 10:57:29;;;;;;;;;;;12.60;99.90;;;;;;5054709;28;19928;-66
2022/11/02 11:00:13;;;;;;;;;;;12.70;99.90;;;;;;5052058;28;19920;-68
2022/11/02 11:02:38;;;;;;;;;;;12.80;99.90;;;;;;5056595;28;19924;-67
2022/11/02 11:05:12;;;;;;;;;;;12.80;99.90;;;;;;5059640;28;19959;-69
2022/11/02 11:07:42;;;;;;;;;;;13.00;99.90;;;;;;5055951;28;19925;-69
2022/11/02 11:10:13;;;;;;;;;;;13.10;99.90;;;;;;5055167;28;19940;-68
2022/11/02 11:12:41;;;;;;;;;;;13.10;99.90;;;;;;5056429;28;20022;-69
2022/11/02 11:15:17;;;;;;;;;;;13.10;99.90;;;;;;5055475;28;19943;-67
2022/11/02 11:17:43;;;;;;;;;;;13.10;99.90;;;;;;5057116;28;19935;-68
2022/11/02 11:20:27;;;;;;;;;;;13.10;99.90;;;;;;5053136;28;19928;-66
2022/11/02 11:23:25;;;;;;;;;;;13.00;99.90;;;;;;5053923;28;19927;-65
2022/11/02 11:26:01;;;;;;;;;;;13.20;99.90;;;;;;5014971;28;20275;-65
2022/11/02 11:28:30;;;;;;;;;;;13.30;99.90;;;;;;5060691;28;19929;-66
2022/11/02 11:31:08;;;;;;;;;;;13.50;99.90;;;;;;5096033;28;20037;-65
2022/11/02 11:33:41;;;;;;;;;;;13.60;99.90;;;;;;5056615;28;19928;-65
2022/11/02 11:36:07;;;;;;;;;;;13.60;99.90;;;;;;5055112;28;19939;-66
2022/11/02 11:38:33;;;;;;;;;;;13.40;99.90;;;;;;5043514;28;20357;-67
2022/11/02 11:40:58;;;;;;;;;;;13.20;99.90;;;;;;5057635;28;19930;-68
2022/11/02 11:43:26;;;;;;;;;;;13.10;99.90;;;;;;5091968;28;19927;-67
2022/11/02 11:45:56;;;;;;;;;;;13.10;99.90;;;;;;5056432;28;19936;-67
2022/11/02 11:48:21;;;;;;;;;;;13.10;99.90;;;;;;5054678;28;19929;-67
2022/11/02 11:50:47;;;;;;;;;;;13.00;99.90;;;;;;5054425;28;20371;-66
2022/11/02 11:53:16;;;;;;;;;;;13.00;99.90;;;;;;5056355;28;19952;-63
2022/11/02 11:55:49;;;;;;;;;;;13.00;99.90;;;;;;5053879;28;20416;-66
2022/11/02 11:58:35;;;;;;;;;;;13.10;99.90;;;;;;5054836;28;20045;-65
2022/11/02 12:01:01;;;;;;;;;;;13.20;99.90;;;;;;5057534;28;19966;-67
2022/11/02 12:03:26;;;;;;;;;;;13.30;99.90;;;;;;5089765;28;19970;-68
2022/11/02 12:05:59;;;;;;;;;;;13.40;99.90;;;;;;5089619;28;20385;-67
2022/11/02 12:08:43;;;;;;;;;;;13.60;99.90;;;;;;5056148;28;20061;-67
2022/11/02 12:11:15;;;;;;;;;;;13.80;99.90;;;;;;5058136;28;19966;-67
2022/11/02 12:13:52;;;;;;;;;;;14.00;99.90;;;;;;5052002;28;20402;-65
2022/11/02 12:16:17;;;;;;;;;;;14.00;99.90;;;;;;5058250;28;21281;-69
2022/11/02 12:19:06;;;;;;;;;;;13.90;99.90;;;;;;5054156;28;20325;-68
2022/11/02 12:21:42;;;;;;;;;;;13.90;99.90;;;;;;5052162;28;20043;-66
2022/11/02 12:24:14;;;;;;;;;;;13.70;99.90;;;;;;5054064;28;19924;-67
2022/11/02 12:26:58;;;;;;;;;;;13.50;99.90;;;;;;5039498;28;20389;-67
2022/11/02 12:29:43;;;;;;;;;;;13.40;99.90;;;;;;5053841;28;20023;-64
2022/11/02 12:32:08;;;;;;;;;;;13.60;99.90;;;;;;5092170;28;19976;-67
2022/11/02 12:34:45;;;;;;;;;;;13.60;99.90;;;;;;5058189;28;19975;-66
2022/11/02 12:37:20;;;;;;;;;;;13.60;99.90;;;;;;5055863;28;19921;-66
2022/11/02 12:40:04;;;;;;;;;;;13.70;99.90;;;;;;5053536;28;19929;-67
2022/11/02 12:42:34;;;;;;;;;;;13.90;99.90;;;;;;5053987;28;19925;-69
2022/11/02 12:45:18;;;;;;;;;;;14.20;99.90;;;;;;5050355;28;19931;-69
2022/11/02 12:47:57;;;;;;;;;;;14.10;99.90;;;;;;5051304;28;19971;-71
2022/11/02 12:50:23;;;;;;;;;;;14.20;99.90;;;;;;5053019;28;20371;-69
2022/11/02 12:53:03;;;;;;;;;;;14.20;99.90;;;;;;5051433;28;19948;-66
2022/11/02 12:55:35;;;;;;;;;;;14.20;99.90;;;;;;5054085;28;19921;-67
2022/11/02 12:58:04;;;;;;;;;;;14.10;99.90;;;;;;5050853;28;19995;-66
2022/11/02 13:00:30;;;;;;;;;;;14.00;99.90;;;;;;5052615;28;19951;-69
2022/11/02 13:03:11;;;;;;;;;;;13.90;99.90;;;;;;5050309;28;19971;-68
2022/11/02 13:05:38;;;;;;;;;;;13.80;99.90;;;;;;5055558;28;19924;-69
2022/11/02 13:08:15;;;;;;;;;;;14.00;99.90;;;;;;5055997;28;19929;-66
2022/11/02 13:10:44;;;;;;;;;;;14.10;99.90;;;;;;5053222;28;20325;-68
2022/11/02 13:13:13;;;;;;;;;;;14.40;99.90;;;;;;5052799;28;20264;-69
2022/11/02 13:15:39;;;;;;;;;;;14.50;99.90;;;;;;5051620;28;19932;-66
2022/11/02 13:18:16;;;;;;;;;;;14.50;99.90;;;;;;5055014;28;19928;-68
2022/11/02 13:20:44;;;;;;;;;;;14.50;99.90;;;;;;5055465;28;20224;-67
2022/11/02 13:23:28;;;;;;;;;;;14.30;99.90;;;;;;5058242;28;20390;-68
2022/11/02 13:25:58;;;;;;;;;;;14.00;99.90;;;;;;5058751;28;19929;-67
2022/11/02 13:28:32;;;;;;;;;;;13.70;99.90;;;;;;5091896;28;19989;-68
2022/11/02 13:31:01;;;;;;;;;;;13.60;99.90;;;;;;5073884;28;19974;-70
2022/11/02 13:33:36;;;;;;;;;;;13.70;99.90;;;;;;5072675;28;19949;-67
2022/11/02 13:36:01;;;;;;;;;;;13.70;99.90;;;;;;5054410;28;19929;-70
2022/11/02 13:38:26;;;;;;;;;;;13.90;99.90;;;;;;5054747;28;19931;-69
2022/11/02 13:41:04;;;;;;;;;;;14.00;99.90;;;;;;5054070;28;20311;-69
2022/11/02 13:43:56;;;;;;;;;;;14.00;99.90;;;;;;5053159;28;21325;-70
2022/11/02 13:46:41;;;;;;;;;;;14.00;99.90;;;;;;5055264;28;20013;-70
2022/11/02 13:49:13;;;;;;;;;;;14.00;99.90;;;;;;5057081;28;19920;-70
2022/11/02 13:51:44;;;;;;;;;;;14.00;99.90;;;;;;5051937;28;19928;-71
2022/11/02 13:54:13;;;;;;;;;;;13.90;99.90;;;;;;5054170;28;20351;-74
2022/11/02 13:56:39;;;;;;;;;;;13.80;99.90;;;;;;5055148;28;19934;-68
2022/11/02 13:59:06;;;;;;;;;;;13.80;99.90;;;;;;5054232;28;19929;-68
2022/11/02 14:01:32;;;;;;;;;;;13.60;99.90;;;;;;5057317;28;19944;-70
2022/11/02 14:04:01;;;;;;;;;;;13.50;99.90;;;;;;5039671;28;19920;-67
2022/11/02 14:06:28;;;;;;;;;;;13.40;99.90;;;;;;5059584;28;20331;-68
2022/11/02 14:08:55;;;;;;;;;;;13.50;99.90;;;;;;5071593;28;20641;-69
2022/11/02 14:11:23;;;;;;;;;;;13.50;99.90;;;;;;5070350;28;19946;-67
2022/11/02 14:14:04;;;;;;;;;;;13.50;99.90;;;;;;5053859;28;19924;-68
2022/11/02 14:16:45;;;;;;;;;;;13.60;99.90;;;;;;5054508;28;19928;-66
2022/11/02 14:19:17;;;;;;;;;;;13.60;99.90;;;;;;5054568;28;19925;-67
2022/11/02 14:21:49;;;;;;;;;;;13.60;99.90;;;;;;5054031;28;20071;-70
2022/11/02 14:24:33;;;;;;;;;;;13.50;99.90;;;;;;5053482;28;19928;-68
2022/11/02 14:26:59;;;;;;;;;;;13.50;99.90;;;;;;5056311;28;20117;-69
2022/11/02 14:29:35;;;;;;;;;;;13.40;99.90;;;;;;5038373;28;20018;-68
2022/11/02 14:32:03;;;;;;;;;;;13.40;99.90;;;;;;5051255;28;19928;-67
2022/11/02 14:34:34;;;;;;;;;;;13.30;99.90;;;;;;5055201;28;19931;-67
2022/11/02 14:37:02;;;;;;;;;;;13.30;99.90;;;;;;5053737;28;20517;-68
2022/11/02 14:39:46;;;;;;;;;;;13.30;99.90;;;;;;5052160;28;19932;-69
2022/11/02 14:42:15;;;;;;;;;;;13.20;99.90;;;;;;5056286;28;19955;-67